Impacts METAR Board
IDs:

KDTW - Detroit Metro/Wayne, MI, US

Updated at: 0800 UTC 25 May 2020
Potential Impact None Slight Moderate High
Time 24/20Z 24/21Z 24/22Z 24/23Z 25/00Z 25/01Z 25/02Z 25/03Z 25/04Z 25/05Z 25/06Z 25/07Z 25/08Z
Temp86 85 86 83 80 77 74 73 72 71 70 71 68
Dewpt65 66 65 66 67 65 63 63 63 64 64 64 63
Altim29.95 29.94 29.93 29.92 29.92 29.93 29.94 29.96 29.97 29.97 29.97 29.98 29.99
VIS10 10 10 10 10 10 10 10 10 10 10 8 8
CIG45 50 75 200 -- -- -- -- -- -- -- -- --
CoverBKNBKNBKNBKNSCTSCTFEWCLRFEWFEWFEWSCTSCT
FltCatVFRVFRVFRVFRVFRVFRVFRVFRVFRVFRVFRVFRVFR
WX---RA----------------------
WDir2102102402301901701802100200200230220
WSpd12 13 11 13 6 5 5 4 0 3 5 6 4
WGst-- -- -- -- -- -- -- -- -- -- -- -- --
Raw hourly METARs
KDTW 241953Z 21012KT 10SM BKN045 BKN065 BKN200 30/18 A2995 RMK AO2 SLP140 CB DSNT W MOV E T03000183 $
KDTW 242053Z 21013KT 10SM -RA BKN050CB BKN200 29/19 A2994 RMK AO2 LTG DSNT NE RAB49 SLP136 CB OHD AND NE MOV E P0000 60000 T02940189 58008 $
KDTW 242153Z 24011KT 10SM FEW045 SCT065 BKN075 30/18 A2993 RMK AO2 LTG DSNT W RAE01 SLP132 CB DSNT NE AND SW MOV E P0000 T03000183 $
KDTW 242253Z 23013KT 10SM FEW045 SCT070 BKN200 28/19 A2992 RMK AO2 LTG DSNT E AND SW SLP129 TSB07E46 OCNL LTGIC DSNT E-S TS MOV E CB DSNT E-S MOV E T02830189 $
KDTW 242353Z 19006KT 10SM FEW050 FEW070 SCT200 27/19 A2992 RMK AO2 SLP129 CB DSNT SE MOV E 60000 T02670194 10306 20267 55003 $
KDTW 250053Z 17005KT 10SM FEW050 FEW100 SCT200 25/18 A2993 RMK AO2 SLP130 T02500183 $
KDTW 250153Z 18005KT 10SM FEW100 FEW250 23/17 A2994 RMK AO2 SLP135 T02330172 $
KDTW 250253Z 21004KT 10SM CLR 23/17 A2996 RMK AO2 SLP140 T02280172 53012 $
KDTW 250353Z 00000KT 10SM FEW250 22/17 A2997 RMK AO2 SLP142 T02220172
KDTW 250453Z 20003KT 10SM FEW250 22/18 A2997 RMK AO2 SLP145 T02170178 403060156
KDTW 250553Z 20005KT 10SM FEW250 21/18 A2997 RMK AO2 SLP143 T02110178 10267 20211 50003
KDTW 250653Z 23006KT 8SM SCT250 22/18 A2998 RMK AO2 SLP146 T02170178
KDTW 250753Z 22004KT 8SM SCT250 20/17 A2999 RMK AO2 SLP150 T02000172



Page loaded:  08:55 UTC  |   01:55 AM Pacific  |   02:55 AM Mountain  |   03:55 AM Central  |   04:55 AM Eastern

 

ADVISORIES

FORECASTS

FORECASTS

OBSERVATIONS

USER TOOLS

ABOUT US